Time;durP1;ratioP1;P1;durP2;ratioP2;P2;SDS_P1;SDS_P2;PMS_P1;PMS_P2;Temp;Humidity;BMP_temperature;BMP_pressure;BME280_temperature;BME280_humidity;BME280_pressure;Samples;Min_cycle;Max_cycle;Signal;HPM_P1;HPM_P2
2022/10/25 00:02:12;;;;;;;;;;;19.20;95.80;;;;;;4939661;29;19988;-67
2022/10/25 00:04:38;;;;;;;;;;;19.30;95.90;;;;;;4917952;29;19927;-67
2022/10/25 00:07:04;;;;;;;;;;;19.20;95.80;;;;;;4920458;29;19923;-67
2022/10/25 00:09:30;;;;;;;;;;;19.10;95.80;;;;;;4944069;29;19927;-68
2022/10/25 00:11:55;;;;;;;;;;;19.20;95.70;;;;;;4938711;29;19927;-67
2022/10/25 00:14:21;;;;;;;;;;;19.30;95.70;;;;;;4954857;29;20009;-67
2022/10/25 00:16:46;;;;;;;;;;;19.40;95.80;;;;;;4957047;29;19930;-67
2022/10/25 00:19:13;;;;;;;;;;;19.10;95.70;;;;;;4956357;29;20002;-67
2022/10/25 00:21:39;;;;;;;;;;;19.30;95.80;;;;;;4955527;29;20394;-66
2022/10/25 00:24:04;;;;;;;;;;;19.30;95.90;;;;;;4955526;28;19927;-68
2022/10/25 00:26:30;;;;;;;;;;;19.20;95.60;;;;;;4956304;29;19927;-67
2022/10/25 00:28:56;;;;;;;;;;;19.10;95.60;;;;;;4956547;29;20021;-67
2022/10/25 00:31:21;;;;;;;;;;;19.30;95.70;;;;;;4955282;29;19930;-67
2022/10/25 00:33:47;;;;;;;;;;;19.30;95.80;;;;;;4955252;29;19927;-67
2022/10/25 00:36:17;;;;;;;;;;;19.00;95.70;;;;;;4939840;29;20025;-67
2022/10/25 00:38:45;;;;;;;;;;;19.30;95.30;;;;;;4939086;29;19985;-67
2022/10/25 00:41:12;;;;;;;;;;;19.20;95.60;;;;;;4938228;29;19927;-68
2022/10/25 00:43:38;;;;;;;;;;;19.20;95.90;;;;;;4956338;29;20013;-67
2022/10/25 00:46:06;;;;;;;;;;;19.40;96.20;;;;;;4938845;29;19926;-67
2022/10/25 00:48:31;;;;;;;;;;;19.50;95.90;;;;;;4939145;29;19926;-67
2022/10/25 00:50:57;;;;;;;;;;;19.20;95.70;;;;;;4938103;29;19933;-68
2022/10/25 00:53:24;;;;;;;;;;;19.20;95.70;;;;;;4955552;29;19968;-68
2022/10/25 00:55:56;;;;;;;;;;;19.00;95.80;;;;;;4956054;29;19935;-67
2022/10/25 00:58:22;;;;;;;;;;;19.10;95.80;;;;;;4956151;29;19973;-67
2022/10/25 01:00:47;;;;;;;;;;;19.10;95.80;;;;;;4956118;29;19934;-67
2022/10/25 01:03:14;;;;;;;;;;;19.00;95.60;;;;;;4955038;29;19926;-67
2022/10/25 01:05:39;;;;;;;;;;;19.10;95.60;;;;;;4939478;29;19930;-67
2022/10/25 01:08:05;;;;;;;;;;;19.00;95.60;;;;;;4937882;29;20004;-67
2022/10/25 01:10:31;;;;;;;;;;;19.40;95.80;;;;;;4938479;29;20300;-67
2022/10/25 01:12:56;;;;;;;;;;;19.40;95.80;;;;;;4954578;29;20013;-67
2022/10/25 01:15:23;;;;;;;;;;;19.10;95.70;;;;;;4939168;29;19934;-69
2022/10/25 01:17:59;;;;;;;;;;;19.00;95.70;;;;;;4955650;29;19933;-67
2022/10/25 01:20:27;;;;;;;;;;;19.10;95.20;;;;;;4938423;29;19926;-67
2022/10/25 01:23:12;;;;;;;;;;;19.20;95.80;;;;;;4940259;28;19930;-67
2022/10/25 01:25:37;;;;;;;;;;;19.20;95.20;;;;;;4955858;29;19926;-67
2022/10/25 01:28:03;;;;;;;;;;;19.10;95.60;;;;;;4955232;29;19933;-67
2022/10/25 01:30:49;;;;;;;;;;;19.20;95.70;;;;;;4955622;29;19969;-67
2022/10/25 01:33:17;;;;;;;;;;;19.30;95.80;;;;;;4862049;29;20278;-67
2022/10/25 01:35:43;;;;;;;;;;;19.30;95.20;;;;;;4878902;29;20015;-67
2022/10/25 01:38:27;;;;;;;;;;;19.20;95.60;;;;;;4882401;29;20018;-67
2022/10/25 01:41:16;;;;;;;;;;;19.10;95.20;;;;;;4849863;29;19952;-67
2022/10/25 01:43:42;;;;;;;;;;;19.10;95.10;;;;;;4845187;29;20018;-67
2022/10/25 01:46:10;;;;;;;;;;;19.10;95.60;;;;;;4843953;29;20454;-67
2022/10/25 01:48:38;;;;;;;;;;;19.50;95.90;;;;;;4844524;29;20008;-67
2022/10/25 01:51:05;;;;;;;;;;;19.00;95.70;;;;;;4843501;29;19936;-67
2022/10/25 01:53:31;;;;;;;;;;;19.20;95.70;;;;;;4843448;29;20381;-68
2022/10/25 01:55:57;;;;;;;;;;;18.90;95.60;;;;;;4839737;29;19932;-67
2022/10/25 01:58:22;;;;;;;;;;;19.10;95.70;;;;;;4844468;29;19932;-67
2022/10/25 02:00:53;;;;;;;;;;;19.20;95.70;;;;;;4840167;29;20371;-67
2022/10/25 02:03:25;;;;;;;;;;;19.20;95.80;;;;;;4822309;29;19929;-67
2022/10/25 02:05:57;;;;;;;;;;;19.30;95.20;;;;;;4807637;29;20023;-67
2022/10/25 02:08:36;;;;;;;;;;;19.30;95.80;;;;;;4807781;29;19936;-67
2022/10/25 02:11:04;;;;;;;;;;;19.20;95.20;;;;;;4845436;29;19936;-67
2022/10/25 02:14:02;;;;;;;;;;;19.10;95.20;;;;;;4846893;29;19928;-67
2022/10/25 02:16:30;;;;;;;;;;;19.20;95.30;;;;;;4824803;29;19929;-67
2022/10/25 02:18:58;;;;;;;;;;;19.00;95.80;;;;;;4824209;29;19932;-67
2022/10/25 02:21:23;;;;;;;;;;;19.10;95.90;;;;;;4837959;29;20487;-68
2022/10/25 02:23:49;;;;;;;;;;;19.30;95.80;;;;;;4828455;29;19975;-68
2022/10/25 02:26:14;;;;;;;;;;;19.30;95.80;;;;;;4843922;29;20248;-67
2022/10/25 02:28:40;;;;;;;;;;;19.00;95.70;;;;;;4843716;29;19929;-67
2022/10/25 02:31:06;;;;;;;;;;;19.30;95.80;;;;;;4842625;29;19933;-68
2022/10/25 02:33:31;;;;;;;;;;;19.30;95.90;;;;;;4828056;29;19943;-68
2022/10/25 02:36:12;;;;;;;;;;;19.10;95.80;;;;;;4828423;29;20023;-67
2022/10/25 02:38:38;;;;;;;;;;;19.30;95.30;;;;;;4843281;29;19933;-68
2022/10/25 02:41:03;;;;;;;;;;;19.30;95.80;;;;;;4843586;29;19928;-67
2022/10/25 02:43:29;;;;;;;;;;;19.20;95.70;;;;;;4826867;29;20378;-68
2022/10/25 02:45:55;;;;;;;;;;;19.00;95.70;;;;;;4843417;29;19940;-67
2022/10/25 02:48:20;;;;;;;;;;;19.30;95.80;;;;;;4842704;29;19929;-67
2022/10/25 02:50:46;;;;;;;;;;;19.20;95.80;;;;;;4842465;29;19928;-67
2022/10/25 02:53:11;;;;;;;;;;;19.10;95.80;;;;;;4936554;29;20423;-68
2022/10/25 02:55:37;;;;;;;;;;;19.00;95.70;;;;;;4958135;29;19926;-67
2022/10/25 02:58:03;;;;;;;;;;;19.10;95.70;;;;;;4958216;29;19974;-67
2022/10/25 03:00:28;;;;;;;;;;;19.20;95.80;;;;;;4973090;28;19926;-67
2022/10/25 03:02:54;;;;;;;;;;;19.10;95.80;;;;;;4957847;29;19961;-67
2022/10/25 03:05:19;;;;;;;;;;;19.20;95.80;;;;;;4956719;29;19926;-67
2022/10/25 03:07:45;;;;;;;;;;;19.30;95.80;;;;;;4958077;29;19949;-67
2022/10/25 03:10:11;;;;;;;;;;;19.20;95.90;;;;;;4940460;29;19927;-67
2022/10/25 03:12:36;;;;;;;;;;;19.40;95.90;;;;;;4957571;29;19989;-67
2022/10/25 03:15:02;;;;;;;;;;;19.50;95.90;;;;;;4938477;29;20408;-67
2022/10/25 03:17:27;;;;;;;;;;;19.10;95.80;;;;;;4957849;29;20368;-67
2022/10/25 03:19:53;;;;;;;;;;;19.20;95.80;;;;;;4940576;29;19933;-67
2022/10/25 03:22:19;;;;;;;;;;;19.30;95.90;;;;;;4957475;29;20307;-67
2022/10/25 03:24:44;;;;;;;;;;;19.20;95.80;;;;;;4955395;29;19974;-67
2022/10/25 03:27:10;;;;;;;;;;;19.00;95.80;;;;;;4957458;29;19927;-67
2022/10/25 03:29:35;;;;;;;;;;;19.40;95.90;;;;;;4957461;29;19989;-67
2022/10/25 03:32:02;;;;;;;;;;;19.00;95.80;;;;;;4972151;28;19930;-67
2022/10/25 03:34:28;;;;;;;;;;;19.30;95.90;;;;;;4972479;28;19926;-67
2022/10/25 03:36:53;;;;;;;;;;;19.20;95.80;;;;;;4939010;29;19933;-67
2022/10/25 03:39:19;;;;;;;;;;;19.00;95.80;;;;;;4958019;29;20316;-67
2022/10/25 03:41:44;;;;;;;;;;;18.90;95.80;;;;;;4957405;29;19933;-67
2022/10/25 03:44:10;;;;;;;;;;;19.20;95.90;;;;;;4939295;29;20014;-68
2022/10/25 03:46:36;;;;;;;;;;;19.20;95.90;;;;;;4939083;29;19927;-67
2022/10/25 03:49:01;;;;;;;;;;;19.00;95.90;;;;;;4956953;29;20351;-68
2022/10/25 03:51:27;;;;;;;;;;;19.30;96.00;;;;;;4956763;29;19926;-67
2022/10/25 03:53:52;;;;;;;;;;;19.20;95.90;;;;;;4956636;29;19926;-67
2022/10/25 03:56:18;;;;;;;;;;;19.10;95.90;;;;;;4957352;29;19981;-67
2022/10/25 03:58:43;;;;;;;;;;;19.00;95.80;;;;;;4939237;29;19927;-68
2022/10/25 04:01:09;;;;;;;;;;;19.10;96.00;;;;;;4940733;29;19933;-67
2022/10/25 04:03:35;;;;;;;;;;;19.30;95.90;;;;;;4926257;29;19990;-68
2022/10/25 04:06:01;;;;;;;;;;;19.20;96.00;;;;;;4941152;29;19927;-68
2022/10/25 04:08:26;;;;;;;;;;;19.20;95.90;;;;;;4938493;29;19934;-67
2022/10/25 04:10:52;;;;;;;;;;;19.20;96.00;;;;;;4954090;29;19934;-67
2022/10/25 04:13:18;;;;;;;;;;;19.10;96.00;;;;;;4956527;29;20328;-67
2022/10/25 04:15:43;;;;;;;;;;;19.20;96.00;;;;;;4956506;29;19976;-67
2022/10/25 04:18:09;;;;;;;;;;;18.90;95.90;;;;;;4953623;29;20300;-67
2022/10/25 04:20:34;;;;;;;;;;;19.20;96.00;;;;;;4956439;29;19926;-67
2022/10/25 04:23:00;;;;;;;;;;;19.30;96.10;;;;;;4956672;29;19926;-67
2022/10/25 04:25:26;;;;;;;;;;;19.40;96.10;;;;;;4956317;29;19926;-67
2022/10/25 04:27:51;;;;;;;;;;;19.40;96.10;;;;;;4956660;29;19931;-67
2022/10/25 04:30:17;;;;;;;;;;;18.90;95.90;;;;;;4957791;28;19974;-67
2022/10/25 04:32:42;;;;;;;;;;;19.10;95.90;;;;;;4939366;29;19927;-67
2022/10/25 04:35:08;;;;;;;;;;;19.40;96.00;;;;;;4956516;29;20395;-67
2022/10/25 04:37:34;;;;;;;;;;;19.10;96.00;;;;;;4939209;29;20450;-68
2022/10/25 04:39:59;;;;;;;;;;;19.20;96.00;;;;;;4955243;29;20047;-68
2022/10/25 04:42:25;;;;;;;;;;;19.00;96.00;;;;;;4956378;29;19926;-67
2022/10/25 04:44:50;;;;;;;;;;;19.40;96.10;;;;;;4956378;29;19926;-67
2022/10/25 04:47:16;;;;;;;;;;;19.10;96.00;;;;;;4956264;29;19927;-68
2022/10/25 04:49:42;;;;;;;;;;;19.40;96.10;;;;;;4955185;29;20013;-67
2022/10/25 04:52:07;;;;;;;;;;;18.90;95.90;;;;;;4955518;29;19927;-67
2022/10/25 04:54:33;;;;;;;;;;;18.90;95.90;;;;;;4955697;29;19931;-67
2022/10/25 04:56:59;;;;;;;;;;;19.10;96.00;;;;;;4938451;29;19926;-67
2022/10/25 04:59:24;;;;;;;;;;;19.00;96.00;;;;;;4956151;29;19981;-68
2022/10/25 05:01:50;;;;;;;;;;;19.20;96.10;;;;;;4954904;29;20384;-67
2022/10/25 05:04:16;;;;;;;;;;;19.00;96.00;;;;;;4956043;29;19926;-67
2022/10/25 05:06:41;;;;;;;;;;;19.10;96.10;;;;;;4956583;29;20384;-67
2022/10/25 05:09:07;;;;;;;;;;;19.10;96.00;;;;;;4955441;29;19982;-67
2022/10/25 05:11:32;;;;;;;;;;;19.20;96.10;;;;;;4954669;29;19926;-67
2022/10/25 05:13:58;;;;;;;;;;;19.00;95.90;;;;;;4953458;29;20386;-67
2022/10/25 05:16:24;;;;;;;;;;;19.10;96.20;;;;;;4937465;29;19929;-67
2022/10/25 05:18:52;;;;;;;;;;;19.30;96.20;;;;;;4955371;29;19934;-67
2022/10/25 05:21:18;;;;;;;;;;;19.00;96.20;;;;;;4955399;29;20013;-68
2022/10/25 05:23:44;;;;;;;;;;;19.00;96.00;;;;;;4954698;29;20025;-67
2022/10/25 05:26:10;;;;;;;;;;;18.90;96.20;;;;;;4955426;29;19926;-67
2022/10/25 05:28:36;;;;;;;;;;;19.30;96.30;;;;;;4955567;29;19933;-67
2022/10/25 05:31:05;;;;;;;;;;;19.30;96.30;;;;;;4955602;29;20013;-67
2022/10/25 05:33:31;;;;;;;;;;;19.40;96.10;;;;;;4954999;29;19930;-67
2022/10/25 05:36:00;;;;;;;;;;;19.10;96.10;;;;;;4955773;29;19927;-66
2022/10/25 05:38:26;;;;;;;;;;;19.20;95.70;;;;;;4937821;29;19926;-67
2022/10/25 05:40:55;;;;;;;;;;;19.00;96.20;;;;;;4938293;29;20391;-66
2022/10/25 05:43:21;;;;;;;;;;;19.10;96.30;;;;;;4955728;29;20319;-68
2022/10/25 05:45:46;;;;;;;;;;;19.20;96.10;;;;;;4938418;29;19983;-67
2022/10/25 05:48:12;;;;;;;;;;;19.20;96.20;;;;;;4954526;29;19930;-67
2022/10/25 05:50:38;;;;;;;;;;;19.30;96.20;;;;;;4955427;29;19927;-67
2022/10/25 05:53:03;;;;;;;;;;;19.00;96.20;;;;;;4945580;29;19927;-67
2022/10/25 05:55:29;;;;;;;;;;;19.20;96.20;;;;;;4955584;29;19926;-67
2022/10/25 05:57:54;;;;;;;;;;;19.20;96.20;;;;;;4936721;29;20439;-67
2022/10/25 06:00:20;;;;;;;;;;;19.30;96.30;;;;;;4955136;29;19926;-68
2022/10/25 06:02:46;;;;;;;;;;;19.30;96.20;;;;;;4953861;29;19933;-67
2022/10/25 06:05:11;;;;;;;;;;;19.10;96.30;;;;;;4938358;29;19931;-67
2022/10/25 06:07:37;;;;;;;;;;;19.20;96.30;;;;;;4955515;29;20345;-67
2022/10/25 06:10:02;;;;;;;;;;;19.20;96.20;;;;;;4953830;29;20384;-67
2022/10/25 06:12:28;;;;;;;;;;;19.10;96.20;;;;;;4954903;29;19973;-67
2022/10/25 06:14:54;;;;;;;;;;;19.10;96.20;;;;;;4955101;29;19933;-67
2022/10/25 06:17:19;;;;;;;;;;;18.90;96.10;;;;;;4933968;29;19934;-67
2022/10/25 06:19:45;;;;;;;;;;;19.40;96.30;;;;;;4950481;29;19927;-67
2022/10/25 06:22:10;;;;;;;;;;;19.30;96.20;;;;;;4938871;29;19973;-67
2022/10/25 06:24:36;;;;;;;;;;;19.20;96.30;;;;;;4941281;29;19933;-67
2022/10/25 06:27:02;;;;;;;;;;;19.30;96.40;;;;;;4958780;29;19926;-65
2022/10/25 06:29:27;;;;;;;;;;;19.10;96.30;;;;;;4940533;29;19954;-69
2022/10/25 06:31:53;;;;;;;;;;;19.20;96.20;;;;;;4941193;29;20017;-68
2022/10/25 06:34:19;;;;;;;;;;;19.30;96.40;;;;;;4941200;29;19950;-69
2022/10/25 06:36:45;;;;;;;;;;;19.40;96.30;;;;;;4958357;29;19950;-68
2022/10/25 06:39:10;;;;;;;;;;;19.10;96.20;;;;;;4956338;29;20376;-68
2022/10/25 06:41:36;;;;;;;;;;;19.30;96.30;;;;;;4957586;29;19934;-68
2022/10/25 06:44:02;;;;;;;;;;;19.50;96.40;;;;;;4941377;29;19926;-68
2022/10/25 06:46:28;;;;;;;;;;;19.10;96.30;;;;;;4941292;29;19927;-68
2022/10/25 06:48:55;;;;;;;;;;;19.30;96.40;;;;;;4958030;29;20336;-69
2022/10/25 06:51:21;;;;;;;;;;;19.20;96.40;;;;;;4939609;29;20396;-68
2022/10/25 06:53:47;;;;;;;;;;;19.40;96.50;;;;;;4909076;29;19931;-67
2022/10/25 06:56:13;;;;;;;;;;;19.30;96.20;;;;;;4953862;29;19978;-68
2022/10/25 06:58:38;;;;;;;;;;;19.40;96.20;;;;;;4939845;29;19942;-69
2022/10/25 07:01:05;;;;;;;;;;;19.30;96.20;;;;;;4922024;29;19982;-68
2022/10/25 07:03:34;;;;;;;;;;;19.30;96.10;;;;;;4956274;29;20316;-67
2022/10/25 07:06:06;;;;;;;;;;;19.10;96.20;;;;;;4957771;29;19984;-68
2022/10/25 07:08:35;;;;;;;;;;;19.40;95.80;;;;;;4957948;29;19930;-68
2022/10/25 07:11:01;;;;;;;;;;;19.50;96.20;;;;;;4923638;29;20303;-68
2022/10/25 07:13:27;;;;;;;;;;;19.30;96.40;;;;;;4929659;29;19927;-68
2022/10/25 07:15:53;;;;;;;;;;;19.40;96.10;;;;;;4938503;29;19977;-69
2022/10/25 07:18:18;;;;;;;;;;;19.40;96.20;;;;;;4938417;29;19922;-68
2022/10/25 07:20:49;;;;;;;;;;;19.40;96.10;;;;;;4941661;29;19933;-68
2022/10/25 07:23:15;;;;;;;;;;;19.40;95.80;;;;;;4924699;29;20372;-69
2022/10/25 07:25:40;;;;;;;;;;;19.30;96.00;;;;;;4957021;29;19926;-68
2022/10/25 07:28:06;;;;;;;;;;;19.50;96.10;;;;;;4957331;29;19977;-68
2022/10/25 07:30:32;;;;;;;;;;;19.60;96.00;;;;;;4957589;29;19933;-68
2022/10/25 07:32:57;;;;;;;;;;;19.60;95.90;;;;;;4956446;28;20402;-69
2022/10/25 07:35:23;;;;;;;;;;;19.50;95.90;;;;;;4939955;29;19930;-68
2022/10/25 07:37:49;;;;;;;;;;;19.60;95.90;;;;;;4939935;29;19930;-69
2022/10/25 07:40:14;;;;;;;;;;;19.60;95.70;;;;;;4957488;29;19980;-68
2022/10/25 07:42:40;;;;;;;;;;;19.80;95.50;;;;;;4939862;29;19927;-68
2022/10/25 07:45:06;;;;;;;;;;;20.00;95.60;;;;;;4956454;29;19927;-66
2022/10/25 07:47:31;;;;;;;;;;;19.70;95.00;;;;;;4955976;29;19978;-68
2022/10/25 07:49:59;;;;;;;;;;;19.80;95.40;;;;;;4956092;29;20400;-71
2022/10/25 07:52:24;;;;;;;;;;;19.70;95.40;;;;;;4956717;29;19977;-69
2022/10/25 07:54:50;;;;;;;;;;;20.10;95.30;;;;;;4956078;29;19973;-68
2022/10/25 07:57:16;;;;;;;;;;;20.00;95.50;;;;;;4939597;29;19974;-69
2022/10/25 07:59:41;;;;;;;;;;;20.10;95.50;;;;;;4939665;29;20308;-68
2022/10/25 08:02:09;;;;;;;;;;;20.10;95.40;;;;;;4938399;29;20013;-68
2022/10/25 08:04:35;;;;;;;;;;;20.70;95.40;;;;;;4925352;29;19926;-67
2022/10/25 08:07:00;;;;;;;;;;;20.00;95.20;;;;;;4949568;29;20631;-67
2022/10/25 08:09:26;;;;;;;;;;;19.60;95.00;;;;;;4950557;29;19974;-68
2022/10/25 08:11:52;;;;;;;;;;;20.10;94.80;;;;;;4956288;29;19935;-68
2022/10/25 08:14:18;;;;;;;;;;;20.40;95.00;;;;;;4956899;29;19934;-67
2022/10/25 08:16:43;;;;;;;;;;;20.40;95.00;;;;;;4955935;29;19970;-67
2022/10/25 08:19:09;;;;;;;;;;;20.60;94.70;;;;;;4955860;29;19974;-68
2022/10/25 08:21:34;;;;;;;;;;;20.50;94.70;;;;;;4938702;29;19930;-68
2022/10/25 08:24:00;;;;;;;;;;;20.50;94.50;;;;;;4956682;29;20013;-69
2022/10/25 08:26:27;;;;;;;;;;;20.80;94.60;;;;;;4938388;29;20265;-69
2022/10/25 08:28:53;;;;;;;;;;;20.70;94.50;;;;;;4939344;29;19965;-68
2022/10/25 08:31:18;;;;;;;;;;;20.80;94.50;;;;;;4939022;29;20404;-67
2022/10/25 08:33:44;;;;;;;;;;;20.80;94.40;;;;;;4939091;29;20432;-68
2022/10/25 08:36:10;;;;;;;;;;;20.70;94.40;;;;;;4956148;29;20021;-68
2022/10/25 08:38:35;;;;;;;;;;;21.50;94.40;;;;;;4959044;28;19927;-68
2022/10/25 08:41:06;;;;;;;;;;;20.70;94.30;;;;;;4923135;29;20403;-68
2022/10/25 08:43:31;;;;;;;;;;;20.60;93.60;;;;;;4923084;29;20016;-68
2022/10/25 08:45:59;;;;;;;;;;;20.80;94.20;;;;;;4955419;28;20025;-68
2022/10/25 08:48:29;;;;;;;;;;;20.70;94.30;;;;;;4922038;29;20308;-68
2022/10/25 08:50:56;;;;;;;;;;;20.70;93.60;;;;;;4938470;29;20021;-69
2022/10/25 08:53:24;;;;;;;;;;;20.70;94.20;;;;;;4922856;29;19926;-68
2022/10/25 08:55:50;;;;;;;;;;;20.60;94.10;;;;;;4938530;29;19993;-68
2022/10/25 08:58:25;;;;;;;;;;;20.80;94.00;;;;;;4938231;29;20415;-68
2022/10/25 09:00:51;;;;;;;;;;;20.70;93.60;;;;;;4922504;29;20329;-68
2022/10/25 09:03:23;;;;;;;;;;;20.70;94.10;;;;;;4907116;29;19974;-67
2022/10/25 09:05:53;;;;;;;;;;;20.80;94.20;;;;;;4923655;29;19930;-67
2022/10/25 09:08:22;;;;;;;;;;;20.50;94.20;;;;;;4921798;29;19940;-68
2022/10/25 09:11:06;;;;;;;;;;;20.60;93.60;;;;;;4936042;29;20640;-66
2022/10/25 09:13:35;;;;;;;;;;;20.50;93.60;;;;;;4937239;29;20005;-67
2022/10/25 09:16:17;;;;;;;;;;;20.60;94.40;;;;;;4921267;29;19931;-66
2022/10/25 09:18:51;;;;;;;;;;;20.40;93.70;;;;;;4919505;29;20002;-66
2022/10/25 09:21:21;;;;;;;;;;;20.40;93.80;;;;;;4919710;29;19933;-67
2022/10/25 09:23:55;;;;;;;;;;;20.30;93.80;;;;;;4919616;29;19923;-67
2022/10/25 09:26:21;;;;;;;;;;;20.60;93.90;;;;;;4936371;29;19990;-67
2022/10/25 09:28:46;;;;;;;;;;;20.40;94.40;;;;;;4938702;29;19927;-67
2022/10/25 09:31:13;;;;;;;;;;;20.30;94.40;;;;;;4955725;29;19926;-67
2022/10/25 09:33:38;;;;;;;;;;;20.40;94.60;;;;;;4922536;29;19933;-67
2022/10/25 09:36:04;;;;;;;;;;;20.40;94.50;;;;;;4954582;29;19926;-67
2022/10/25 09:38:33;;;;;;;;;;;20.20;94.20;;;;;;4955747;29;19933;-67
2022/10/25 09:40:59;;;;;;;;;;;20.20;94.00;;;;;;4938350;29;19926;-67
2022/10/25 09:43:26;;;;;;;;;;;20.30;94.60;;;;;;4922588;29;19926;-67
2022/10/25 09:45:56;;;;;;;;;;;20.60;94.70;;;;;;4966812;28;20288;-67
2022/10/25 09:48:27;;;;;;;;;;;20.50;94.10;;;;;;4919332;29;19935;-67
2022/10/25 09:51:16;;;;;;;;;;;20.20;94.10;;;;;;4936486;29;20071;-67
2022/10/25 09:53:42;;;;;;;;;;;20.30;94.10;;;;;;4896318;29;19970;-67
2022/10/25 09:56:08;;;;;;;;;;;20.20;94.60;;;;;;4897403;29;20405;-67
2022/10/25 09:58:40;;;;;;;;;;;20.40;94.50;;;;;;4881905;29;19984;-67
2022/10/25 10:01:24;;;;;;;;;;;20.30;94.10;;;;;;4883215;29;20357;-67
2022/10/25 10:03:50;;;;;;;;;;;20.00;94.10;;;;;;4868740;29;19982;-67
2022/10/25 10:06:20;;;;;;;;;;;20.30;94.70;;;;;;4884660;29;19975;-67
2022/10/25 10:08:49;;;;;;;;;;;20.10;94.10;;;;;;4869611;29;19928;-67
2022/10/25 10:11:16;;;;;;;;;;;20.30;94.10;;;;;;4881305;29;20038;-67
2022/10/25 10:13:43;;;;;;;;;;;20.50;94.80;;;;;;4865582;29;19932;-66
2022/10/25 10:16:14;;;;;;;;;;;20.50;94.80;;;;;;4883458;29;19996;-67
2022/10/25 10:18:40;;;;;;;;;;;20.50;94.20;;;;;;4883496;29;19970;-66
2022/10/25 10:21:09;;;;;;;;;;;20.60;94.80;;;;;;4883731;29;19934;-67
2022/10/25 10:23:58;;;;;;;;;;;20.10;94.10;;;;;;4899585;29;20373;-67
2022/10/25 10:26:28;;;;;;;;;;;20.40;94.20;;;;;;4899547;29;19928;-67
2022/10/25 10:29:10;;;;;;;;;;;20.60;94.30;;;;;;4877758;29;20018;-67
2022/10/25 10:31:37;;;;;;;;;;;20.50;94.30;;;;;;4926614;29;19933;-67
2022/10/25 10:34:02;;;;;;;;;;;20.60;95.00;;;;;;4941496;29;20382;-68
2022/10/25 10:36:28;;;;;;;;;;;20.30;94.80;;;;;;4927967;29;20021;-68
2022/10/25 10:38:54;;;;;;;;;;;20.30;94.90;;;;;;4927165;29;19953;-68
2022/10/25 10:41:22;;;;;;;;;;;20.40;94.90;;;;;;4957124;29;20336;-68
2022/10/25 10:43:48;;;;;;;;;;;20.50;95.10;;;;;;4941511;29;19930;-69
2022/10/25 10:46:14;;;;;;;;;;;20.50;95.10;;;;;;4933842;29;19927;-68
2022/10/25 10:48:43;;;;;;;;;;;20.70;95.30;;;;;;4922356;29;19990;-68
2022/10/25 10:51:10;;;;;;;;;;;20.50;94.70;;;;;;4957875;29;20422;-68
2022/10/25 10:53:35;;;;;;;;;;;20.50;95.40;;;;;;4956591;29;19974;-68
2022/10/25 10:56:01;;;;;;;;;;;20.90;95.40;;;;;;4972901;28;19966;-68
2022/10/25 10:58:29;;;;;;;;;;;20.70;95.30;;;;;;4940992;29;19927;-69
2022/10/25 11:01:01;;;;;;;;;;;20.70;95.50;;;;;;4939866;29;19934;-68
2022/10/25 11:03:33;;;;;;;;;;;20.90;94.70;;;;;;4940715;29;19982;-69
2022/10/25 11:05:59;;;;;;;;;;;21.60;94.80;;;;;;4940092;29;20301;-69
2022/10/25 11:08:25;;;;;;;;;;;21.10;95.10;;;;;;4954822;28;19926;-68
2022/10/25 11:10:50;;;;;;;;;;;21.20;95.10;;;;;;4939642;29;19931;-69
2022/10/25 11:13:16;;;;;;;;;;;21.10;95.00;;;;;;4958307;29;20332;-68
2022/10/25 11:15:57;;;;;;;;;;;21.00;95.20;;;;;;4940638;29;20017;-68
2022/10/25 11:18:34;;;;;;;;;;;21.30;94.60;;;;;;4936170;28;19926;-69
2022/10/25 11:21:08;;;;;;;;;;;21.00;94.50;;;;;;4919855;29;19934;-69
2022/10/25 11:24:03;;;;;;;;;;;21.40;94.80;;;;;;4937629;29;19950;-68
2022/10/25 11:26:48;;;;;;;;;;;21.40;94.50;;;;;;4882864;29;20409;-68
2022/10/25 11:29:17;;;;;;;;;;;21.20;94.40;;;;;;4879012;29;19934;-69
2022/10/25 11:31:52;;;;;;;;;;;21.00;94.30;;;;;;4887391;29;19927;-69
2022/10/25 11:34:30;;;;;;;;;;;21.10;94.30;;;;;;4897840;29;19934;-69
2022/10/25 11:36:57;;;;;;;;;;;21.30;94.30;;;;;;4874041;29;20310;-69
2022/10/25 11:39:26;;;;;;;;;;;21.30;94.80;;;;;;4883265;29;20018;-69
2022/10/25 11:41:54;;;;;;;;;;;21.60;94.10;;;;;;4882041;29;20386;-69
2022/10/25 11:44:38;;;;;;;;;;;21.30;94.60;;;;;;4898244;29;19931;-69
2022/10/25 11:47:23;;;;;;;;;;;21.30;93.90;;;;;;4893489;29;19937;-68
2022/10/25 11:49:52;;;;;;;;;;;21.60;94.00;;;;;;4882298;29;19998;-69
2022/10/25 11:52:26;;;;;;;;;;;21.20;93.80;;;;;;4882136;29;19989;-69
2022/10/25 11:54:52;;;;;;;;;;;21.50;94.00;;;;;;4898311;29;19927;-68
2022/10/25 11:57:20;;;;;;;;;;;21.70;94.60;;;;;;4867325;29;19943;-69
2022/10/25 11:59:56;;;;;;;;;;;21.40;93.90;;;;;;4881238;29;20414;-69
2022/10/25 12:02:30;;;;;;;;;;;21.20;93.80;;;;;;4885385;29;20317;-68
2022/10/25 12:05:08;;;;;;;;;;;21.40;93.80;;;;;;4957007;29;19926;-69
2022/10/25 12:07:46;;;;;;;;;;;23.30;94.10;;;;;;4939773;29;19987;-70
2022/10/25 12:10:14;;;;;;;;;;;21.70;93.60;;;;;;4957241;28;19932;-69
2022/10/25 12:12:50;;;;;;;;;;;21.40;93.80;;;;;;4955001;29;20006;-69
2022/10/25 12:15:21;;;;;;;;;;;21.50;93.40;;;;;;4920533;29;20409;-69
2022/10/25 12:17:47;;;;;;;;;;;21.50;93.40;;;;;;4936061;29;19926;-69
2022/10/25 12:20:20;;;;;;;;;;;21.60;94.10;;;;;;4951017;28;19933;-68
2022/10/25 12:22:46;;;;;;;;;;;22.30;93.10;;;;;;4955278;28;19969;-69
2022/10/25 12:25:18;;;;;;;;;;;23.40;92.50;;;;;;4955032;29;19979;-69
2022/10/25 12:27:43;;;;;;;;;;;24.20;90.60;;;;;;4955129;29;19926;-69
2022/10/25 12:30:13;;;;;;;;;;;24.90;90.00;;;;;;4922219;28;19926;-69
2022/10/25 12:32:42;;;;;;;;;;;25.90;88.10;;;;;;4938355;29;19933;-69
2022/10/25 12:35:27;;;;;;;;;;;26.60;85.30;;;;;;4939408;29;20291;-69
2022/10/25 12:37:57;;;;;;;;;;;27.10;83.50;;;;;;4954716;29;19926;-67
2022/10/25 12:40:23;;;;;;;;;;;26.60;82.40;;;;;;4939893;29;19980;-67
2022/10/25 12:42:50;;;;;;;;;;;26.00;83.30;;;;;;4938816;29;19961;-67
2022/10/25 12:45:15;;;;;;;;;;;25.20;84.20;;;;;;4937900;29;19926;-69
2022/10/25 12:47:41;;;;;;;;;;;24.70;85.20;;;;;;4938865;29;19981;-69
2022/10/25 12:50:10;;;;;;;;;;;24.10;86.20;;;;;;4934838;29;20017;-68
2022/10/25 12:52:36;;;;;;;;;;;23.90;86.40;;;;;;4938777;29;20277;-68
2022/10/25 12:55:21;;;;;;;;;;;23.50;88.70;;;;;;4934447;28;20374;-67
2022/10/25 12:57:53;;;;;;;;;;;23.30;88.30;;;;;;4954442;29;19926;-67
2022/10/25 13:00:19;;;;;;;;;;;23.00;89.50;;;;;;4937882;29;20009;-69
2022/10/25 13:03:00;;;;;;;;;;;22.90;90.90;;;;;;4936285;29;20017;-70
2022/10/25 13:05:27;;;;;;;;;;;22.40;90.60;;;;;;4921421;29;19927;-67
2022/10/25 13:07:59;;;;;;;;;;;22.10;91.30;;;;;;4938417;29;20388;-67
2022/10/25 13:10:25;;;;;;;;;;;22.10;91.20;;;;;;4937716;28;19926;-68
2022/10/25 13:13:03;;;;;;;;;;;21.90;92.00;;;;;;4937781;29;19931;-68
2022/10/25 13:15:37;;;;;;;;;;;21.90;91.80;;;;;;4938392;29;19927;-68
2022/10/25 13:18:03;;;;;;;;;;;22.00;92.20;;;;;;4938789;29;19934;-67
2022/10/25 13:20:32;;;;;;;;;;;21.80;93.00;;;;;;4955665;29;19933;-67
2022/10/25 13:22:58;;;;;;;;;;;21.50;92.60;;;;;;4954258;29;20017;-69
2022/10/25 13:25:29;;;;;;;;;;;21.40;93.20;;;;;;4954298;28;20085;-68
2022/10/25 13:28:13;;;;;;;;;;;21.40;92.90;;;;;;4938333;29;19927;-69
2022/10/25 13:30:39;;;;;;;;;;;21.40;93.10;;;;;;4947220;28;19989;-69
2022/10/25 13:33:24;;;;;;;;;;;21.50;93.70;;;;;;4942674;29;20013;-69
2022/10/25 13:35:50;;;;;;;;;;;20.50;93.10;;;;;;4958966;29;19950;-69
2022/10/25 13:38:25;;;;;;;;;;;21.30;94.00;;;;;;4959708;29;19922;-68
2022/10/25 13:41:11;;;;;;;;;;;21.30;93.60;;;;;;4939277;29;19937;-69
2022/10/25 13:43:55;;;;;;;;;;;21.30;94.30;;;;;;4952480;29;19973;-69
2022/10/25 13:46:23;;;;;;;;;;;21.50;93.90;;;;;;4941356;29;19937;-68
2022/10/25 13:48:48;;;;;;;;;;;21.50;94.60;;;;;;4942293;29;19934;-69
2022/10/25 13:51:15;;;;;;;;;;;21.10;94.30;;;;;;4941575;28;22019;-69
2022/10/25 13:53:42;;;;;;;;;;;21.00;94.70;;;;;;4941770;29;19930;-68
2022/10/25 13:56:11;;;;;;;;;;;21.20;94.70;;;;;;4917666;29;20070;-69
2022/10/25 13:58:37;;;;;;;;;;;21.00;94.70;;;;;;4935390;28;19934;-69
2022/10/25 14:01:15;;;;;;;;;;;23.00;95.30;;;;;;4958148;28;19973;-69
2022/10/25 14:03:49;;;;;;;;;;;21.30;94.30;;;;;;4957101;29;20327;-69
2022/10/25 14:06:24;;;;;;;;;;;20.20;94.00;;;;;;4958662;29;20292;-69
2022/10/25 14:09:08;;;;;;;;;;;20.80;94.20;;;;;;4941294;29;20439;-69
2022/10/25 14:11:43;;;;;;;;;;;21.00;94.20;;;;;;4930990;29;20380;-69
2022/10/25 14:14:17;;;;;;;;;;;21.10;94.30;;;;;;4958894;29;19933;-68
2022/10/25 14:16:44;;;;;;;;;;;21.00;94.30;;;;;;4925487;29;19926;-68
2022/10/25 14:19:13;;;;;;;;;;;20.90;95.00;;;;;;4925899;29;19926;-69
2022/10/25 14:21:38;;;;;;;;;;;21.10;94.90;;;;;;4922000;29;20009;-68
2022/10/25 14:24:05;;;;;;;;;;;21.10;94.80;;;;;;4925226;29;20080;-69